Pouch Cove, Canada
Current Conditions -  °F | °C
As of 5:00 PM on Monday 26 Jan 2015 (Local Time) from CYYT Reporting Station
Few Clouds Few Clouds  
Wind Chill: -14°   Ceiling: Unl
Heat Index: -5°   Visibility: 15mi
Dew Point: -10°   Wind: 28mph
Humidity: 68%   Direction: 260°W
Pressure: 29.97"   Gusts: 38mph
Location:  47.76°N, 52.76°W
Report Text: CYYT 262000Z 26024G33KT 15SM FEW025 M05/M10 A2997 RMK SC2 PRESRR SLP156
Loading
Personal Weather Stations






























Interactive Weather Map New forecast layout! Learn more

10-Day Weather Forecast

Advertisements
Track Severe Weather on mobile